createdAt,value
2017-05-06T00:01:10.421Z,11.37
2017-05-06T00:01:55.829Z,11.29
2017-05-06T00:02:55.851Z,11.22
2017-05-06T00:04:10.184Z,11.22
2017-05-06T00:04:55.893Z,11.25
2017-05-06T00:06:10.557Z,11.25
2017-05-06T00:06:55.935Z,11.22
2017-05-06T00:07:55.964Z,11.24
2017-05-06T00:08:55.979Z,11.22
2017-05-06T00:09:56.008Z,11.21
2017-05-06T00:10:56.028Z,11.29
2017-05-06T00:11:56.047Z,11.17
2017-05-06T00:12:56.067Z,11.28
2017-05-06T00:13:56.089Z,11.27
2017-05-06T00:14:56.114Z,11.25
2017-05-06T00:15:56.135Z,11.21
2017-05-06T00:16:56.158Z,11.28
2017-05-06T00:17:56.175Z,11.28
2017-05-06T00:18:56.207Z,11.24
2017-05-06T00:20:10.839Z,11.15
2017-05-06T00:20:56.243Z,11.07
2017-05-06T00:21:56.264Z,11.06
2017-05-06T00:22:56.283Z,11.1
2017-05-06T00:23:56.304Z,11.09
2017-05-06T00:24:56.328Z,11.14
2017-05-06T00:25:56.349Z,11.15
2017-05-06T00:27:56.391Z,11.03
2017-05-06T00:28:56.415Z,11.1
2017-05-06T00:29:56.437Z,11.07
2017-05-06T00:30:56.482Z,11.14
2017-05-06T00:31:56.482Z,11.14
2017-05-06T00:32:56.501Z,11.14
2017-05-06T00:33:56.543Z,11.17
2017-05-06T00:34:56.546Z,11.18
2017-05-06T00:36:10.879Z,11.21
2017-05-06T00:36:56.591Z,11.22
2017-05-06T00:37:56.617Z,11.28
2017-05-06T00:38:56.634Z,11.32
2017-05-06T00:40:56.675Z,11.27
2017-05-06T00:41:56.695Z,11.32
2017-05-06T00:42:56.716Z,11.32
2017-05-06T00:44:56.763Z,11.33
2017-05-06T00:45:56.785Z,11.29
2017-05-06T00:46:56.803Z,11.33
2017-05-06T00:48:11.442Z,11.36
2017-05-06T00:48:56.850Z,11.43
2017-05-06T00:49:56.872Z,11.33
2017-05-06T00:50:56.891Z,11.42
2017-05-06T00:52:11.527Z,11.43
2017-05-06T00:52:56.940Z,11.36
2017-05-06T00:53:56.958Z,11.35
2017-05-06T00:54:56.974Z,11.37
2017-05-06T00:55:56.997Z,11.42
2017-05-06T00:56:57.021Z,11.39
2017-05-06T00:57:57.044Z,11.43
2017-05-06T00:58:56.762Z,11.51
2017-05-06T00:59:57.084Z,11.44
2017-05-06T01:00:57.105Z,11.47
2017-05-06T01:03:11.464Z,11.58
2017-05-06T01:03:56.870Z,11.58
2017-05-06T01:04:56.894Z,11.46
2017-05-06T01:05:56.916Z,11.55
2017-05-06T01:07:11.854Z,11.61
2017-05-06T01:07:56.958Z,11.54
2017-05-06T01:08:56.681Z,11.52
2017-05-06T01:09:57.303Z,11.51
2017-05-06T01:10:57.326Z,11.46
2017-05-06T01:11:57.041Z,11.42
2017-05-06T01:12:57.371Z,11.43
2017-05-06T01:14:57.109Z,11.39
2017-05-06T01:15:57.431Z,11.47
2017-05-06T01:16:57.149Z,11.44
2017-05-06T01:17:57.475Z,11.35
2017-05-06T01:19:12.112Z,11.35
2017-05-06T01:20:12.133Z,11.35
2017-05-06T01:20:57.536Z,11.43
2017-05-06T01:21:57.561Z,11.33
2017-05-06T01:22:57.582Z,11.29
2017-05-06T01:23:57.608Z,11.29
2017-05-06T01:24:57.327Z,11.28
2017-05-06T01:25:57.646Z,11.37
2017-05-06T01:26:57.667Z,11.32
2017-05-06T01:28:57.407Z,11.32
2017-05-06T01:29:57.742Z,11.39
2017-05-06T01:30:57.753Z,11.37
2017-05-06T01:31:57.776Z,11.29
2017-05-06T01:32:57.799Z,11.27
2017-05-06T01:33:57.818Z,11.36
2017-05-06T01:34:57.841Z,11.29
2017-05-06T01:35:57.862Z,11.28
2017-05-06T01:36:57.882Z,11.25
2017-05-06T01:37:57.905Z,11.21
2017-05-06T01:39:12.236Z,11.24
2017-05-06T01:40:57.969Z,11.17
2017-05-06T01:41:57.989Z,11.14
2017-05-06T01:42:58.012Z,11.24
2017-05-06T01:43:58.032Z,11.22
2017-05-06T01:45:58.074Z,11.19
2017-05-06T01:47:58.121Z,11.21
2017-05-06T01:48:58.141Z,11.15
2017-05-06T01:49:58.167Z,11.18
2017-05-06T01:51:12.799Z,11.1
2017-05-06T01:51:58.240Z,11.09
2017-05-06T01:52:58.231Z,11.11
2017-05-06T01:53:58.249Z,11.14
2017-05-06T01:55:12.884Z,11.11
2017-05-06T01:55:58.292Z,11.18
2017-05-06T01:56:58.310Z,11.11
2017-05-06T01:57:58.333Z,11.1
2017-05-06T01:58:58.353Z,11.17
2017-05-06T01:59:58.375Z,11.09
2017-05-06T02:00:58.398Z,11.06
2017-05-06T02:01:58.421Z,11.1
2017-05-06T02:02:58.442Z,11.21
2017-05-06T02:03:58.466Z,11.18
2017-05-06T02:04:58.488Z,11.21
2017-05-06T02:05:58.502Z,11.27
2017-05-06T02:06:58.524Z,11.27
2017-05-06T02:08:13.159Z,11.25
2017-05-06T02:08:58.568Z,11.29
2017-05-06T02:09:58.587Z,11.27
2017-05-06T02:11:13.224Z,11.37
2017-05-06T02:11:58.635Z,11.36
2017-05-06T02:12:58.652Z,11.29
2017-05-06T02:13:58.679Z,11.35
2017-05-06T02:14:58.701Z,11.33
2017-05-06T02:15:58.714Z,11.32
2017-05-06T02:16:58.739Z,11.35
2017-05-06T02:17:58.757Z,11.28
2017-05-06T02:18:58.780Z,11.33
2017-05-06T02:19:58.803Z,11.32
2017-05-06T02:21:58.547Z,11.36
2017-05-06T02:22:58.863Z,11.29
2017-05-06T02:23:58.892Z,11.39
2017-05-06T02:24:58.906Z,11.36
2017-05-06T02:25:58.930Z,11.37
2017-05-06T02:27:13.572Z,11.33
2017-05-06T02:27:58.679Z,11.32
2017-05-06T02:28:58.995Z,11.35
2017-05-06T02:30:59.035Z,11.29
2017-05-06T02:31:59.057Z,11.4
2017-05-06T02:32:59.079Z,11.32
2017-05-06T02:33:59.105Z,11.39
2017-05-06T02:34:59.121Z,11.39
2017-05-06T02:36:59.165Z,11.43
2017-05-06T02:37:59.188Z,11.43
2017-05-06T02:39:13.826Z,11.39
2017-05-06T02:39:59.235Z,11.33
2017-05-06T02:40:59.250Z,11.28
2017-05-06T02:42:13.892Z,11.28
2017-05-06T02:43:59.317Z,11.27
2017-05-06T02:44:59.342Z,11.39
2017-05-06T02:47:59.408Z,11.44
2017-05-06T02:48:59.423Z,11.52
2017-05-06T02:49:59.447Z,11.46
2017-05-06T02:50:59.468Z,11.39
2017-05-06T02:51:59.491Z,11.32
2017-05-06T02:52:59.508Z,11.28
2017-05-06T02:53:59.539Z,11.32
2017-05-06T02:54:59.552Z,11.32
2017-05-06T02:55:59.574Z,11.27
2017-05-06T02:56:59.594Z,11.24
2017-05-06T02:57:59.620Z,11.24
2017-05-06T02:58:59.639Z,11.24
2017-05-06T02:59:59.661Z,11.36
2017-05-06T03:00:59.712Z,11.27
2017-05-06T03:01:59.704Z,11.29
2017-05-06T03:02:59.727Z,11.24
2017-05-06T03:03:59.749Z,11.24
2017-05-06T03:04:59.771Z,11.25
2017-05-06T03:05:59.793Z,11.24
2017-05-06T03:06:59.814Z,11.11
2017-05-06T03:08:14.450Z,11.17
2017-05-06T03:08:59.854Z,11.21
2017-05-06T03:09:59.873Z,11.06
2017-05-06T03:11:14.513Z,11.17
2017-05-06T03:11:59.918Z,11.1
2017-05-06T03:12:59.940Z,11.22
2017-05-06T03:14:14.578Z,11.17
2017-05-06T03:14:59.981Z,11.18
2017-05-06T03:17:00.022Z,11.18
2017-05-06T03:18:00.047Z,11.15
2017-05-06T03:19:00.067Z,11.21
2017-05-06T03:20:00.090Z,11.15
2017-05-06T03:22:00.134Z,11.19
2017-05-06T03:23:00.152Z,11.21
2017-05-06T03:23:59.872Z,11.25
2017-05-06T03:25:14.813Z,11.19
2017-05-06T03:26:00.239Z,11.24
2017-05-06T03:27:00.243Z,11.24
2017-05-06T03:28:00.263Z,11.24
2017-05-06T03:29:00.283Z,11.09
2017-05-06T03:30:14.918Z,11.04
2017-05-06T03:31:00.325Z,11.1
2017-05-06T03:32:00.345Z,11
2017-05-06T03:33:00.378Z,11
2017-05-06T03:34:00.389Z,11.06
2017-05-06T03:35:00.412Z,11.02
2017-05-06T03:36:00.430Z,10.99
2017-05-06T03:37:00.450Z,10.94
2017-05-06T03:38:00.479Z,10.88
2017-05-06T03:39:00.515Z,10.86
2017-05-06T03:41:00.539Z,10.91
2017-05-06T03:42:00.563Z,10.81
2017-05-06T03:43:00.274Z,10.7
2017-05-06T03:44:00.605Z,10.73
2017-05-06T03:45:00.622Z,10.59
2017-05-06T03:46:15.262Z,10.74
2017-05-06T03:47:00.666Z,10.71
2017-05-06T03:48:00.689Z,10.76
2017-05-06T03:49:00.711Z,10.74
2017-05-06T03:50:00.726Z,10.71
2017-05-06T03:51:00.750Z,10.76
2017-05-06T03:52:00.771Z,10.73
2017-05-06T03:54:00.819Z,10.74
2017-05-06T03:55:00.831Z,10.71
2017-05-06T03:56:00.858Z,10.67
2017-05-06T03:57:00.875Z,10.71
2017-05-06T03:58:15.513Z,10.74
2017-05-06T03:59:00.919Z,10.78
2017-05-06T04:01:00.964Z,10.81
2017-05-06T04:02:15.292Z,10.89
2017-05-06T04:03:01.009Z,10.85
2017-05-06T04:04:01.022Z,10.96
2017-05-06T04:05:01.051Z,11.02
2017-05-06T04:06:01.067Z,10.92
2017-05-06T04:07:00.783Z,11.02
2017-05-06T04:08:01.114Z,10.99
2017-05-06T04:10:01.150Z,11.21
2017-05-06T04:11:01.169Z,11.22
2017-05-06T04:12:01.194Z,11.19
2017-05-06T04:13:15.526Z,11.25
2017-05-06T04:14:15.850Z,11.28
2017-05-06T04:15:01.258Z,11.28
2017-05-06T04:16:00.972Z,11.22
2017-05-06T04:17:15.914Z,11.29
2017-05-06T04:18:01.328Z,11.28
2017-05-06T04:19:01.342Z,11.46
2017-05-06T04:20:01.364Z,11.44
2017-05-06T04:21:01.083Z,11.42
2017-05-06T04:22:01.406Z,11.47
2017-05-06T04:23:01.424Z,11.51
2017-05-06T04:24:01.449Z,11.55
2017-05-06T04:25:01.469Z,11.61
2017-05-06T04:26:01.186Z,11.58
2017-05-06T04:27:01.208Z,11.57
2017-05-06T04:28:01.547Z,11.57
2017-05-06T04:29:01.557Z,11.65
2017-05-06T04:30:01.576Z,11.67
2017-05-06T04:32:01.625Z,11.76
2017-05-06T04:33:01.643Z,11.72
2017-05-06T04:34:01.664Z,11.67
2017-05-06T04:35:01.686Z,11.73
2017-05-06T04:36:01.706Z,11.76
2017-05-06T04:37:01.726Z,11.75
2017-05-06T04:38:01.751Z,11.76
2017-05-06T04:39:01.770Z,11.7
2017-05-06T04:40:01.792Z,11.75
2017-05-06T04:42:01.835Z,11.82
2017-05-06T04:43:01.857Z,11.72
2017-05-06T04:44:16.525Z,11.72
2017-05-06T04:45:01.592Z,11.7
2017-05-06T04:46:01.921Z,11.69
2017-05-06T04:47:01.940Z,11.82
2017-05-06T04:48:01.963Z,11.75
2017-05-06T04:50:01.701Z,11.94
2017-05-06T04:51:01.726Z,11.98
2017-05-06T04:52:02.048Z,11.98
2017-05-06T04:53:02.069Z,11.9
2017-05-06T04:54:02.090Z,11.78
2017-05-06T04:55:01.810Z,11.72
2017-05-06T04:56:16.756Z,11.78
2017-05-06T04:57:01.853Z,11.7
2017-05-06T04:58:02.180Z,11.75
2017-05-06T04:59:01.898Z,11.6
2017-05-06T05:00:02.224Z,11.62
2017-05-06T05:01:16.859Z,11.62
2017-05-06T05:02:02.268Z,11.69
2017-05-06T05:03:01.983Z,11.67
2017-05-06T05:04:02.313Z,11.8
2017-05-06T05:05:16.945Z,11.82
2017-05-06T05:06:02.350Z,11.72
2017-05-06T05:07:02.373Z,11.83
2017-05-06T05:08:02.396Z,11.91
2017-05-06T05:09:02.415Z,11.99
2017-05-06T05:10:02.436Z,11.99
2017-05-06T05:11:02.461Z,12.09
2017-05-06T05:12:02.479Z,12.09
2017-05-06T05:13:02.505Z,12.19
2017-05-06T05:14:17.147Z,12.24
2017-05-06T05:15:02.557Z,12.34
2017-05-06T05:16:02.569Z,12.42
2017-05-06T05:17:02.590Z,12.42
2017-05-06T05:18:02.612Z,12.42
2017-05-06T05:19:02.635Z,12.39
2017-05-06T05:20:02.654Z,12.37
2017-05-06T05:21:17.345Z,12.34
2017-05-06T05:23:02.724Z,12.47
2017-05-06T05:24:02.742Z,12.45
2017-05-06T05:25:02.770Z,12.45
2017-05-06T05:26:02.794Z,12.39
2017-05-06T05:27:02.825Z,12.49
2017-05-06T05:28:02.831Z,12.57
2017-05-06T05:29:02.857Z,12.64
2017-05-06T05:30:17.498Z,12.71
2017-05-06T05:31:03.149Z,12.57
2017-05-06T05:32:17.537Z,12.7
2017-05-06T05:33:02.938Z,12.7
2017-05-06T05:34:17.579Z,12.79
2017-05-06T05:35:02.985Z,12.74
2017-05-06T05:36:03.005Z,12.87
2017-05-06T05:37:17.646Z,12.87
2017-05-06T05:38:03.050Z,12.89
2017-05-06T05:39:03.075Z,13.03
2017-05-06T05:40:03.098Z,13.11
2017-05-06T05:41:03.129Z,13.2
2017-05-06T05:42:03.148Z,13.29
2017-05-06T05:43:03.163Z,13.22
2017-05-06T05:44:03.211Z,13.2
2017-05-06T05:45:03.205Z,13.19
2017-05-06T05:46:03.229Z,13.33
2017-05-06T05:47:03.254Z,13.49
2017-05-06T05:48:03.275Z,13.64
2017-05-06T05:49:03.302Z,13.54
2017-05-06T05:50:03.319Z,13.6
2017-05-06T05:51:03.038Z,13.92
2017-05-06T05:52:17.677Z,13.88
2017-05-06T05:53:03.082Z,13.91
2017-05-06T05:54:03.408Z,13.89
2017-05-06T05:55:03.431Z,13.87
2017-05-06T05:56:03.460Z,13.77
2017-05-06T05:57:03.479Z,13.87
2017-05-06T05:59:03.526Z,14
2017-05-06T06:00:03.542Z,14.09
2017-05-06T06:02:03.592Z,14.2
2017-05-06T06:03:03.614Z,14.17
2017-05-06T06:04:03.637Z,13.87
2017-05-06T06:05:03.657Z,13.78
2017-05-06T06:06:03.678Z,13.77
2017-05-06T06:07:03.700Z,13.81
2017-05-06T06:08:03.726Z,13.81
2017-05-06T06:09:03.746Z,13.63
2017-05-06T06:10:03.770Z,13.59
2017-05-06T06:11:03.795Z,13.45
2017-05-06T06:12:03.818Z,13.46
2017-05-06T06:13:03.838Z,13.63
2017-05-06T06:14:03.875Z,13.57
2017-05-06T06:15:03.885Z,13.44
2017-05-06T06:16:03.904Z,13.36
2017-05-06T06:17:03.935Z,13.26
2017-05-06T06:19:03.975Z,12.95
2017-05-06T06:20:04.003Z,12.89
2017-05-06T06:21:18.636Z,12.86
2017-05-06T06:22:04.042Z,12.93
2017-05-06T06:23:04.066Z,12.96
2017-05-06T06:24:18.703Z,13.04
2017-05-06T06:25:04.112Z,13.1
2017-05-06T06:26:04.137Z,13.19
2017-05-06T06:27:04.156Z,13.32
2017-05-06T06:28:04.180Z,13.36
2017-05-06T06:29:04.202Z,13.49
2017-05-06T06:30:04.226Z,13.49
2017-05-06T06:31:04.249Z,13.52
2017-05-06T06:33:04.289Z,13.77
2017-05-06T06:34:04.319Z,13.78
2017-05-06T06:35:04.375Z,13.77
2017-05-06T06:36:04.359Z,13.66
2017-05-06T06:37:04.383Z,13.66
2017-05-06T06:39:04.424Z,13.6
2017-05-06T06:40:19.070Z,13.57
2017-05-06T06:41:04.472Z,13.64
2017-05-06T06:42:04.494Z,13.6
2017-05-06T06:43:19.159Z,13.6
2017-05-06T06:44:04.543Z,13.67
2017-05-06T06:45:04.567Z,13.6
2017-05-06T06:46:04.586Z,13.63
2017-05-06T06:48:04.632Z,13.85
2017-05-06T06:50:04.372Z,13.91
2017-05-06T06:51:04.698Z,13.82
2017-05-06T06:52:19.339Z,13.81
2017-05-06T06:53:04.743Z,13.64
2017-05-06T06:54:04.766Z,13.81
2017-05-06T06:55:04.789Z,13.92
2017-05-06T06:56:19.428Z,13.95
2017-05-06T06:57:04.833Z,13.96
2017-05-06T06:58:04.859Z,14.09
2017-05-06T06:59:04.881Z,14.1
2017-05-06T07:01:04.928Z,13.89
2017-05-06T07:02:04.955Z,13.7
2017-05-06T07:03:04.673Z,13.66
2017-05-06T07:04:04.690Z,13.7
2017-05-06T07:05:04.715Z,13.85
2017-05-06T07:06:04.739Z,13.89
2017-05-06T07:07:04.759Z,13.87
2017-05-06T07:08:19.399Z,13.88
2017-05-06T07:09:19.724Z,13.82
2017-05-06T07:10:04.829Z,13.64
2017-05-06T07:11:05.157Z,13.7
2017-05-06T07:12:19.794Z,13.73
2017-05-06T07:13:04.896Z,13.73
2017-05-06T07:14:04.920Z,13.62
2017-05-06T07:15:04.949Z,13.7
2017-05-06T07:16:04.965Z,13.66
2017-05-06T07:18:05.318Z,13.67
2017-05-06T07:19:05.336Z,13.62
2017-05-06T07:20:05.055Z,13.6
2017-05-06T07:23:20.048Z,13.38
2017-05-06T07:24:05.454Z,13.44
2017-05-06T07:25:05.474Z,13.39
2017-05-06T07:26:05.496Z,13.41
2017-05-06T07:27:20.136Z,13.41
2017-05-06T07:28:05.544Z,13.42
2017-05-06T07:29:05.570Z,13.52
2017-05-06T07:30:05.593Z,13.59
2017-05-06T07:31:05.611Z,13.69
2017-05-06T07:32:05.638Z,13.57
2017-05-06T07:33:05.654Z,13.59
2017-05-06T07:34:05.679Z,13.57
2017-05-06T07:35:05.704Z,13.63
2017-05-06T07:36:05.727Z,13.62
2017-05-06T07:37:05.745Z,13.69
2017-05-06T07:38:05.772Z,13.92
2017-05-06T07:39:05.492Z,14.09
2017-05-06T07:40:05.815Z,14.15
2017-05-06T07:41:05.841Z,14.07
2017-05-06T07:42:05.562Z,14.18
2017-05-06T07:43:05.885Z,14.22
2017-05-06T07:44:05.910Z,14.45
2017-05-06T07:45:05.932Z,14.54
2017-05-06T07:46:05.952Z,14.6
2017-05-06T07:47:05.977Z,14.77
2017-05-06T07:48:06.011Z,14.86
2017-05-06T07:49:06.021Z,14.96
2017-05-06T07:50:06.049Z,14.98
2017-05-06T07:51:06.069Z,15.03
2017-05-06T07:52:06.092Z,15.13
2017-05-06T07:53:06.115Z,15.01
2017-05-06T07:54:06.139Z,14.98
2017-05-06T07:55:20.478Z,14.7
2017-05-06T07:56:05.888Z,14.77
2017-05-06T07:57:06.209Z,14.86
2017-05-06T07:58:06.231Z,15.11
2017-05-06T07:59:20.873Z,15.25
2017-05-06T08:00:06.279Z,15.34
2017-05-06T08:01:06.301Z,15.41
2017-05-06T08:02:06.325Z,15.49
2017-05-06T08:03:06.347Z,15.34
2017-05-06T08:04:06.371Z,15.2
2017-05-06T08:05:06.395Z,15.09
2017-05-06T08:06:06.421Z,15.17
2017-05-06T08:09:06.490Z,15.41
2017-05-06T08:10:06.510Z,15.43
2017-05-06T08:11:06.537Z,15.51
2017-05-06T08:12:06.559Z,15.57
2017-05-06T08:13:06.584Z,15.44
2017-05-06T08:14:06.605Z,15.51
2017-05-06T08:15:21.245Z,15.53
2017-05-06T08:17:06.679Z,15.54
2017-05-06T08:18:06.698Z,15.96
2017-05-06T08:19:06.725Z,16.49
2017-05-06T08:20:06.442Z,16.71
2017-05-06T08:21:06.773Z,16.81
2017-05-06T08:22:06.795Z,17.08
2017-05-06T08:23:06.822Z,17.25
2017-05-06T08:25:06.868Z,18.02
2017-05-06T08:26:21.207Z,18.25
2017-05-06T08:27:06.918Z,18.42
2017-05-06T08:28:06.943Z,18.27
2017-05-06T08:29:06.971Z,18.05
2017-05-06T08:30:06.994Z,18.29
2017-05-06T08:31:21.636Z,18.36
2017-05-06T08:32:07.043Z,18.55
2017-05-06T08:33:07.069Z,18.54
2017-05-06T08:34:07.093Z,18.51
2017-05-06T08:35:07.119Z,18.85
2017-05-06T08:36:07.146Z,19.08
2017-05-06T08:37:07.171Z,19.31
2017-05-06T08:38:07.194Z,19.36
2017-05-06T08:40:07.247Z,18.82
2017-05-06T08:41:07.273Z,18.88
2017-05-06T08:42:07.301Z,18.95
2017-05-06T08:43:07.322Z,19.14
2017-05-06T08:44:07.383Z,19.16
2017-05-06T08:45:07.379Z,18.75
2017-05-06T08:46:07.400Z,18.25
2017-05-06T08:47:22.042Z,18.23
2017-05-06T08:48:07.453Z,18.36
2017-05-06T08:49:07.477Z,18.69
2017-05-06T08:50:07.503Z,18.99
2017-05-06T08:51:07.528Z,19.29
2017-05-06T08:52:07.248Z,19.66
2017-05-06T08:53:07.580Z,19.76
2017-05-06T08:54:07.603Z,19.84
2017-05-06T08:55:07.634Z,19.66
2017-05-06T08:56:07.658Z,19.26
2017-05-06T08:57:07.687Z,19.41
2017-05-06T08:58:22.336Z,19.41
2017-05-06T08:59:22.354Z,19.16
2017-05-06T09:00:07.468Z,19.37
2017-05-06T09:01:07.790Z,19.36
2017-05-06T09:02:22.433Z,19.58
2017-05-06T09:03:07.840Z,19.78
2017-05-06T09:04:07.867Z,20.1
2017-05-06T09:05:07.895Z,20.39
2017-05-06T09:06:07.923Z,20.14
2017-05-06T09:07:07.949Z,20.05
2017-05-06T09:08:07.972Z,19.95
2017-05-06T09:09:07.999Z,20.01
2017-05-06T09:11:08.049Z,19.99
2017-05-06T09:12:08.078Z,19.99
2017-05-06T09:13:08.103Z,20.11
2017-05-06T09:14:22.748Z,20.11
2017-05-06T09:15:07.856Z,20.1
2017-05-06T09:16:08.183Z,20.08
2017-05-06T09:17:08.210Z,19.84
2017-05-06T09:18:08.237Z,19.5
2017-05-06T09:19:08.261Z,19.76
2017-05-06T09:20:08.292Z,20.08
2017-05-06T09:21:08.317Z,20.13
2017-05-06T09:22:08.341Z,20.1
2017-05-06T09:23:08.370Z,20.23
2017-05-06T09:24:08.395Z,20.33
2017-05-06T09:25:08.421Z,20.61
2017-05-06T09:27:08.477Z,20.48
2017-05-06T09:28:08.198Z,20.59
2017-05-06T09:29:08.528Z,20.84
2017-05-06T09:30:08.563Z,21.16
2017-05-06T09:31:23.200Z,21.12
2017-05-06T09:32:08.307Z,21.22
2017-05-06T09:33:08.640Z,21.34
2017-05-06T09:34:23.280Z,21.83
2017-05-06T09:35:08.689Z,22.09
2017-05-06T09:36:08.714Z,22.05
2017-05-06T09:37:08.744Z,22.25
2017-05-06T09:38:08.770Z,22.47
2017-05-06T09:39:08.798Z,22.35
2017-05-06T09:40:08.526Z,22.54
2017-05-06T09:41:08.852Z,22.33
2017-05-06T09:42:08.578Z,22.2
2017-05-06T09:44:08.936Z,21.24
2017-05-06T09:45:08.963Z,21.27
2017-05-06T09:46:08.710Z,21.06
2017-05-06T09:47:09.018Z,20.82
2017-05-06T09:48:09.047Z,21.04
2017-05-06T09:49:09.073Z,20.92
2017-05-06T09:50:23.720Z,20.97
2017-05-06T09:51:08.826Z,21.07
2017-05-06T09:52:08.852Z,20.85
2017-05-06T09:53:09.183Z,20.94
2017-05-06T09:54:08.910Z,21.03
2017-05-06T09:55:08.937Z,21.07
2017-05-06T09:57:09.294Z,21.1
2017-05-06T09:58:09.327Z,21.31
2017-05-06T09:59:09.351Z,21.5
2017-05-06T10:00:23.996Z,21.58
2017-05-06T10:01:24.024Z,21.9
2017-05-06T10:02:24.049Z,22
2017-05-06T10:03:09.157Z,22.24
2017-05-06T10:04:09.487Z,22.21
2017-05-06T10:05:09.516Z,21.69
2017-05-06T10:06:23.856Z,21.82
2017-05-06T10:07:09.278Z,21.83
2017-05-06T10:08:08.989Z,21.71
2017-05-06T10:09:09.629Z,21.68
2017-05-06T10:10:09.347Z,21.24
2017-05-06T10:11:09.375Z,21.14
2017-05-06T10:12:09.708Z,20.62
2017-05-06T10:13:09.735Z,20.42
2017-05-06T10:15:09.791Z,19.61
2017-05-06T10:16:09.819Z,19.78
2017-05-06T10:17:09.568Z,19.87
2017-05-06T10:18:24.490Z,20.1
2017-05-06T10:19:09.903Z,20.02
2017-05-06T10:20:09.625Z,20.03
2017-05-06T10:21:09.953Z,19.94
2017-05-06T10:22:24.599Z,19.98
2017-05-06T10:23:09.707Z,19.8
2017-05-06T10:24:09.733Z,19.8
2017-05-06T10:25:10.062Z,19.73
2017-05-06T10:26:10.090Z,19.78
2017-05-06T10:27:10.115Z,19.94
2017-05-06T10:28:09.839Z,19.91
2017-05-06T10:29:10.170Z,19.69
2017-05-06T10:30:24.817Z,19.66
2017-05-06T10:31:09.918Z,19.66
2017-05-06T10:32:10.249Z,19.44
2017-05-06T10:33:24.912Z,19.48
2017-05-06T10:34:09.697Z,19.41
2017-05-06T10:35:10.359Z,19.18
2017-05-06T10:36:09.748Z,19.04
2017-05-06T10:37:25.000Z,18.95
2017-05-06T10:38:10.407Z,18.8
2017-05-06T10:39:10.132Z,18.78
2017-05-06T10:40:10.463Z,18.73
2017-05-06T10:41:10.487Z,18.72
2017-05-06T10:42:10.207Z,18.6
2017-05-06T10:43:10.534Z,18.52
2017-05-06T10:44:10.561Z,18.65
2017-05-06T10:45:10.587Z,18.58
2017-05-06T10:46:10.618Z,18.65
2017-05-06T10:47:10.640Z,18.63
2017-05-06T10:48:10.359Z,18.65
2017-05-06T10:49:10.688Z,18.63
2017-05-06T10:50:25.332Z,18.58
2017-05-06T10:51:10.741Z,18.63
2017-05-06T10:52:10.766Z,18.67
2017-05-06T10:53:10.792Z,18.75
2017-05-06T10:54:10.824Z,18.88
2017-05-06T10:55:10.540Z,18.92
2017-05-06T10:56:10.867Z,19.06
2017-05-06T10:57:10.894Z,19.11
2017-05-06T10:58:10.921Z,19.21
2017-05-06T10:59:10.942Z,19.14
2017-05-06T11:00:10.970Z,19.13
2017-05-06T11:01:10.998Z,19.16
2017-05-06T11:02:11.020Z,19
2017-05-06T11:03:11.048Z,18.9
2017-05-06T11:04:11.081Z,18.91
2017-05-06T11:05:11.098Z,18.76
2017-05-06T11:06:11.124Z,18.7
2017-05-06T11:07:11.150Z,18.47
2017-05-06T11:08:11.175Z,18.44
2017-05-06T11:09:25.815Z,18.44
2017-05-06T11:10:10.922Z,18.45
2017-05-06T11:11:11.254Z,18.45
2017-05-06T11:12:11.277Z,18.37
2017-05-06T11:13:11.012Z,18.29
2017-05-06T11:14:11.325Z,18.42
2017-05-06T11:15:11.352Z,18.42
2017-05-06T11:16:11.383Z,18.12
2017-05-06T11:17:11.403Z,18.08
2017-05-06T11:18:11.429Z,18.08
2017-05-06T11:20:11.485Z,18.08
2017-05-06T11:21:25.816Z,18.1
2017-05-06T11:22:11.226Z,18.07
2017-05-06T11:23:11.552Z,18.3
2017-05-06T11:24:11.584Z,18.27
2017-05-06T11:25:26.220Z,18.44
2017-05-06T11:26:11.327Z,18.5
2017-05-06T11:27:11.655Z,18.36
2017-05-06T11:28:11.979Z,18.36
2017-05-06T11:29:11.704Z,18.39
2017-05-06T11:30:11.728Z,18.5
2017-05-06T11:31:11.462Z,18.55
2017-05-06T11:32:11.783Z,18.5
2017-05-06T11:33:11.806Z,18.6
2017-05-06T11:34:11.829Z,18.7
2017-05-06T11:36:11.583Z,18.94
2017-05-06T11:37:26.221Z,19.06
2017-05-06T11:38:26.244Z,19.31
2017-05-06T11:39:11.653Z,19.41
2017-05-06T11:40:11.679Z,19.58
2017-05-06T11:41:26.624Z,19.74
2017-05-06T11:42:12.038Z,19.8
2017-05-06T11:43:11.755Z,19.84
2017-05-06T11:44:11.781Z,19.76
2017-05-06T11:45:12.107Z,19.76
2017-05-06T11:46:11.833Z,19.95
2017-05-06T11:47:11.859Z,20.05
2017-05-06T11:48:11.884Z,20.2
2017-05-06T11:49:12.212Z,20.33
2017-05-06T11:50:12.238Z,20.32
2017-05-06T11:52:11.680Z,20.08
2017-05-06T11:53:12.013Z,20.1
2017-05-06T11:54:12.034Z,20.32
2017-05-06T11:55:12.364Z,20.26
2017-05-06T11:56:12.087Z,20.06
2017-05-06T11:57:27.035Z,19.59
2017-05-06T11:58:12.441Z,19.4
2017-05-06T11:59:12.470Z,18.99
2017-05-06T12:00:12.191Z,19.06
2017-05-06T12:01:12.518Z,19.1
2017-05-06T12:02:12.544Z,19.25
2017-05-06T12:03:12.569Z,19.51
2017-05-06T12:04:12.600Z,19.59
2017-05-06T12:05:12.638Z,19.95
2017-05-06T12:06:12.649Z,20.1
2017-05-06T12:08:12.700Z,20.52
2017-05-06T12:09:12.425Z,20.62
2017-05-06T12:10:27.369Z,20.54
2017-05-06T12:11:12.781Z,20.7
2017-05-06T12:12:27.421Z,20.85
2017-05-06T12:13:12.830Z,20.97
2017-05-06T12:14:12.857Z,20.99
2017-05-06T12:15:12.932Z,21.1
2017-05-06T12:16:12.912Z,21.21
2017-05-06T12:17:12.934Z,21.32
2017-05-06T12:18:12.963Z,20.87
2017-05-06T12:19:12.986Z,20.58
2017-05-06T12:20:13.011Z,20.16
2017-05-06T12:21:12.737Z,19.84
2017-05-06T12:22:12.765Z,20.05
2017-05-06T12:23:27.710Z,20.14
2017-05-06T12:24:12.816Z,20.28
2017-05-06T12:25:13.146Z,20.28
2017-05-06T12:26:13.171Z,20.26
2017-05-06T12:27:13.198Z,20.26
2017-05-06T12:28:13.223Z,20.26
2017-05-06T12:29:13.250Z,20.29
2017-05-06T12:30:13.275Z,20.24
2017-05-06T12:31:13.300Z,20.02
2017-05-06T12:32:13.325Z,20.16
2017-05-06T12:33:13.351Z,20.13
2017-05-06T12:34:13.381Z,20.17
2017-05-06T12:35:13.410Z,20.33
2017-05-06T12:37:13.459Z,20.16
2017-05-06T12:38:13.179Z,19.55
2017-05-06T12:39:13.206Z,19.02
2017-05-06T12:40:13.537Z,19.06
2017-05-06T12:42:13.616Z,19.02
2017-05-06T12:43:13.617Z,19.06
2017-05-06T12:44:28.257Z,19.46
2017-05-06T12:45:13.667Z,19.66
2017-05-06T12:46:13.694Z,19.69
2017-05-06T12:47:13.719Z,19.51
2017-05-06T12:48:13.744Z,19.62
2017-05-06T12:49:13.770Z,19.66
2017-05-06T12:50:13.796Z,19.71
2017-05-06T12:51:13.824Z,19.83
2017-05-06T12:52:13.543Z,19.8
2017-05-06T12:54:13.595Z,19.74
2017-05-06T12:55:13.924Z,19.63
2017-05-06T12:56:13.954Z,19.63
2017-05-06T12:57:13.976Z,19.58
2017-05-06T12:58:28.619Z,19.63
2017-05-06T12:59:14.029Z,19.58
2017-05-06T13:00:28.672Z,19.56
2017-05-06T13:01:14.080Z,19.62
2017-05-06T13:02:14.121Z,19.71
2017-05-06T13:03:14.131Z,19.65
2017-05-06T13:04:14.166Z,19.66
2017-05-06T13:05:14.182Z,19.62
2017-05-06T13:06:14.209Z,19.36
2017-05-06T13:07:14.247Z,19.19
2017-05-06T13:08:14.268Z,19.16
2017-05-06T13:10:14.009Z,19.21
2017-05-06T13:11:14.341Z,19.21
2017-05-06T13:12:28.982Z,19.04
2017-05-06T13:13:14.392Z,19.14
2017-05-06T13:14:14.415Z,19.13
2017-05-06T13:15:14.445Z,18.98
2017-05-06T13:16:29.084Z,18.73
2017-05-06T13:17:14.494Z,18.81
2017-05-06T13:18:14.519Z,19.08
2017-05-06T13:19:14.547Z,18.92
2017-05-06T13:20:14.271Z,18.95
2017-05-06T13:21:14.297Z,19.13
2017-05-06T13:22:14.317Z,19.19
2017-05-06T13:25:14.395Z,19.33
2017-05-06T13:26:14.723Z,19.39
2017-05-06T13:27:14.449Z,19.31
2017-05-06T13:28:29.089Z,19.29
2017-05-06T13:29:14.499Z,19.41
2017-05-06T13:30:14.827Z,19.56
2017-05-06T13:31:14.868Z,19.31
2017-05-06T13:32:29.195Z,19.13
2017-05-06T13:33:14.907Z,19.04
2017-05-06T13:34:14.324Z,18.99
2017-05-06T13:35:14.657Z,19.07
2017-05-06T13:36:14.981Z,19.02
2017-05-06T13:37:15.030Z,19.11
2017-05-06T13:38:15.033Z,19.25
2017-05-06T13:39:14.761Z,19.28
2017-05-06T13:40:14.780Z,19.13
2017-05-06T13:41:14.807Z,19.13
2017-05-06T13:42:14.527Z,18.98
2017-05-06T13:43:15.160Z,18.87
2017-05-06T13:44:14.882Z,18.88
2017-05-06T13:45:15.211Z,18.94
2017-05-06T13:46:15.241Z,18.87
2017-05-06T13:47:29.889Z,18.9
2017-05-06T13:48:15.013Z,19.07
2017-05-06T13:49:15.011Z,19.02
2017-05-06T13:50:15.340Z,19.19
2017-05-06T13:51:15.368Z,19.39
2017-05-06T13:52:15.390Z,19.36